Terminal Aerodrome Forecast
Issued by NWS

Home | Current Version | Previous Version | Text Only | Print | Product List | Glossary On
Versions: 1 2 3 4 5 6 7 8 9 10 11 12 13 14 15 16 17 18 19 20 21 22
000
FTUS45 KPIH 300500
TAFSUN
TAF
KSUN 300520Z 3006/0106 16006KT P6SM VCSH FEW010 SCT015 OVC040
     FM301000 33008KT P6SM VCSH BKN060
     FM301800 15010KT P6SM VCSH SCT080
     FM302100 15010G20KT P6SM SCT100
     FM010200 29007KT P6SM SCT050 BKN100
      AMD LTD TO CLD VIS AND WIND TIL 301300=

USA.gov is the U.S. government's official web portal to all federal, state and local government web resources and services.